sensor_id;sensor_type;location;lat;lon;timestamp;P1;durP1;ratioP1;P2;durP2;ratioP2
21876;SDS011;11103;43.788;23.710;2022-11-15T00:00:47;119.57;;;50.60;;
21876;SDS011;11103;43.788;23.710;2022-11-15T00:03:16;109.20;;;48.33;;
21876;SDS011;11103;43.788;23.710;2022-11-15T00:05:43;114.43;;;48.17;;
21876;SDS011;11103;43.788;23.710;2022-11-15T00:08:09;103.33;;;48.03;;
21876;SDS011;11103;43.788;23.710;2022-11-15T00:10:35;105.63;;;45.53;;
21876;SDS011;11103;43.788;23.710;2022-11-15T00:13:04;115.77;;;48.13;;
21876;SDS011;11103;43.788;23.710;2022-11-15T00:15:35;115.60;;;48.17;;
21876;SDS011;11103;43.788;23.710;2022-11-15T00:18:04;110.03;;;46.33;;
21876;SDS011;11103;43.788;23.710;2022-11-15T00:20:31;118.23;;;46.80;;
21876;SDS011;11103;43.788;23.710;2022-11-15T00:22:58;112.80;;;45.37;;
21876;SDS011;11103;43.788;23.710;2022-11-15T00:25:24;98.07;;;40.97;;
21876;SDS011;11103;43.788;23.710;2022-11-15T00:27:49;85.83;;;38.70;;
21876;SDS011;11103;43.788;23.710;2022-11-15T00:30:16;102.50;;;41.13;;
21876;SDS011;11103;43.788;23.710;2022-11-15T00:32:42;108.47;;;44.63;;
21876;SDS011;11103;43.788;23.710;2022-11-15T00:35:08;102.03;;;42.83;;
21876;SDS011;11103;43.788;23.710;2022-11-15T00:37:33;102.10;;;43.20;;
21876;SDS011;11103;43.788;23.710;2022-11-15T00:39:58;96.13;;;41.90;;
21876;SDS011;11103;43.788;23.710;2022-11-15T00:42:24;102.57;;;43.07;;
21876;SDS011;11103;43.788;23.710;2022-11-15T00:44:49;111.50;;;43.13;;
21876;SDS011;11103;43.788;23.710;2022-11-15T00:47:15;94.43;;;41.83;;
21876;SDS011;11103;43.788;23.710;2022-11-15T00:49:40;94.20;;;41.67;;
21876;SDS011;11103;43.788;23.710;2022-11-15T00:52:06;92.60;;;40.60;;
21876;SDS011;11103;43.788;23.710;2022-11-15T00:54:32;101.53;;;41.67;;
21876;SDS011;11103;43.788;23.710;2022-11-15T00:56:57;92.93;;;39.93;;
21876;SDS011;11103;43.788;23.710;2022-11-15T00:59:23;93.93;;;40.40;;
21876;SDS011;11103;43.788;23.710;2022-11-15T01:01:48;97.40;;;40.20;;
21876;SDS011;11103;43.788;23.710;2022-11-15T01:04:13;95.10;;;42.80;;
21876;SDS011;11103;43.788;23.710;2022-11-15T01:06:39;99.97;;;41.63;;
21876;SDS011;11103;43.788;23.710;2022-11-15T01:09:04;103.43;;;40.10;;
21876;SDS011;11103;43.788;23.710;2022-11-15T01:11:29;110.57;;;41.27;;
21876;SDS011;11103;43.788;23.710;2022-11-15T01:13:55;96.30;;;39.00;;
21876;SDS011;11103;43.788;23.710;2022-11-15T01:16:20;107.63;;;40.90;;
21876;SDS011;11103;43.788;23.710;2022-11-15T01:18:46;104.20;;;40.30;;
21876;SDS011;11103;43.788;23.710;2022-11-15T01:21:14;105.47;;;40.63;;
21876;SDS011;11103;43.788;23.710;2022-11-15T01:23:42;104.23;;;43.93;;
21876;SDS011;11103;43.788;23.710;2022-11-15T01:26:09;109.60;;;40.57;;
21876;SDS011;11103;43.788;23.710;2022-11-15T01:28:37;113.43;;;42.37;;
21876;SDS011;11103;43.788;23.710;2022-11-15T01:31:04;103.60;;;40.23;;
21876;SDS011;11103;43.788;23.710;2022-11-15T01:33:34;110.00;;;41.33;;
21876;SDS011;11103;43.788;23.710;2022-11-15T01:36:05;98.77;;;37.63;;
21876;SDS011;11103;43.788;23.710;2022-11-15T01:38:31;103.30;;;38.83;;
21876;SDS011;11103;43.788;23.710;2022-11-15T01:40:56;93.33;;;36.80;;
21876;SDS011;11103;43.788;23.710;2022-11-15T01:43:29;98.20;;;37.43;;
21876;SDS011;11103;43.788;23.710;2022-11-15T01:46:06;92.80;;;36.47;;
21876;SDS011;11103;43.788;23.710;2022-11-15T01:48:44;92.43;;;35.93;;
21876;SDS011;11103;43.788;23.710;2022-11-15T01:51:10;80.90;;;34.00;;
21876;SDS011;11103;43.788;23.710;2022-11-15T01:53:39;85.83;;;32.23;;
21876;SDS011;11103;43.788;23.710;2022-11-15T01:56:09;85.53;;;31.83;;
21876;SDS011;11103;43.788;23.710;2022-11-15T01:58:38;79.83;;;32.90;;
21876;SDS011;11103;43.788;23.710;2022-11-15T02:01:07;83.70;;;32.43;;
21876;SDS011;11103;43.788;23.710;2022-11-15T02:03:34;83.80;;;31.70;;
21876;SDS011;11103;43.788;23.710;2022-11-15T02:06:21;77.13;;;30.47;;
21876;SDS011;11103;43.788;23.710;2022-11-15T02:08:47;78.83;;;31.87;;
21876;SDS011;11103;43.788;23.710;2022-11-15T02:11:12;75.03;;;32.37;;
21876;SDS011;11103;43.788;23.710;2022-11-15T02:13:38;78.17;;;31.60;;
21876;SDS011;11103;43.788;23.710;2022-11-15T02:18:40;70.67;;;29.07;;
21876;SDS011;11103;43.788;23.710;2022-11-15T02:27:15;66.47;;;29.67;;
21876;SDS011;11103;43.788;23.710;2022-11-15T02:32:48;73.80;;;31.57;;
21876;SDS011;11103;43.788;23.710;2022-11-15T02:41:15;81.53;;;31.33;;
21876;SDS011;11103;43.788;23.710;2022-11-15T02:43:53;75.20;;;31.00;;
21876;SDS011;11103;43.788;23.710;2022-11-15T02:46:35;80.50;;;31.70;;
21876;SDS011;11103;43.788;23.710;2022-11-15T02:49:20;78.37;;;32.83;;
21876;SDS011;11103;43.788;23.710;2022-11-15T02:51:48;76.93;;;31.43;;
21876;SDS011;11103;43.788;23.710;2022-11-15T02:54:26;75.33;;;31.80;;
21876;SDS011;11103;43.788;23.710;2022-11-15T02:56:56;78.03;;;32.77;;
21876;SDS011;11103;43.788;23.710;2022-11-15T03:10:45;84.43;;;32.60;;
21876;SDS011;11103;43.788;23.710;2022-11-15T03:13:24;83.30;;;33.27;;
21876;SDS011;11103;43.788;23.710;2022-11-15T03:16:03;82.17;;;34.43;;
21876;SDS011;11103;43.788;23.710;2022-11-15T03:18:37;85.03;;;34.83;;
21876;SDS011;11103;43.788;23.710;2022-11-15T03:21:07;79.90;;;34.47;;
21876;SDS011;11103;43.788;23.710;2022-11-15T03:23:35;75.43;;;34.00;;
21876;SDS011;11103;43.788;23.710;2022-11-15T03:26:02;74.10;;;34.80;;
21876;SDS011;11103;43.788;23.710;2022-11-15T03:28:34;91.73;;;36.83;;
21876;SDS011;11103;43.788;23.710;2022-11-15T03:31:03;81.40;;;38.40;;
21876;SDS011;11103;43.788;23.710;2022-11-15T03:33:50;83.80;;;36.17;;
21876;SDS011;11103;43.788;23.710;2022-11-15T03:36:20;85.83;;;37.13;;
21876;SDS011;11103;43.788;23.710;2022-11-15T03:38:47;90.13;;;36.70;;
21876;SDS011;11103;43.788;23.710;2022-11-15T03:41:56;86.13;;;36.17;;
21876;SDS011;11103;43.788;23.710;2022-11-15T03:44:13;81.50;;;36.37;;
21876;SDS011;11103;43.788;23.710;2022-11-15T03:47:04;84.60;;;35.97;;
21876;SDS011;11103;43.788;23.710;2022-11-15T03:49:39;86.20;;;35.53;;
21876;SDS011;11103;43.788;23.710;2022-11-15T03:52:10;84.40;;;35.57;;
21876;SDS011;11103;43.788;23.710;2022-11-15T03:54:36;84.50;;;34.20;;
21876;SDS011;11103;43.788;23.710;2022-11-15T03:57:02;83.10;;;33.57;;
21876;SDS011;11103;43.788;23.710;2022-11-15T03:59:27;87.80;;;35.87;;
21876;SDS011;11103;43.788;23.710;2022-11-15T04:01:53;79.17;;;34.20;;
21876;SDS011;11103;43.788;23.710;2022-11-15T04:04:18;79.23;;;33.97;;
21876;SDS011;11103;43.788;23.710;2022-11-15T04:06:43;79.70;;;35.03;;
21876;SDS011;11103;43.788;23.710;2022-11-15T04:09:09;82.73;;;35.10;;
21876;SDS011;11103;43.788;23.710;2022-11-15T04:11:34;72.37;;;33.70;;
21876;SDS011;11103;43.788;23.710;2022-11-15T04:14:00;78.33;;;33.17;;
21876;SDS011;11103;43.788;23.710;2022-11-15T04:16:25;79.77;;;33.20;;
21876;SDS011;11103;43.788;23.710;2022-11-15T04:18:51;75.47;;;34.03;;
21876;SDS011;11103;43.788;23.710;2022-11-15T04:21:36;72.37;;;31.27;;
21876;SDS011;11103;43.788;23.710;2022-11-15T04:24:20;73.33;;;33.10;;
21876;SDS011;11103;43.788;23.710;2022-11-15T04:26:45;79.63;;;32.53;;
21876;SDS011;11103;43.788;23.710;2022-11-15T04:29:11;78.23;;;34.13;;
21876;SDS011;11103;43.788;23.710;2022-11-15T04:31:55;72.13;;;33.77;;
21876;SDS011;11103;43.788;23.710;2022-11-15T04:34:20;70.53;;;33.00;;
21876;SDS011;11103;43.788;23.710;2022-11-15T04:36:46;77.43;;;33.03;;
21876;SDS011;11103;43.788;23.710;2022-11-15T04:39:40;72.60;;;33.60;;
21876;SDS011;11103;43.788;23.710;2022-11-15T04:42:06;71.77;;;33.60;;
21876;SDS011;11103;43.788;23.710;2022-11-15T04:44:32;76.63;;;35.77;;
21876;SDS011;11103;43.788;23.710;2022-11-15T04:46:58;77.93;;;34.70;;
21876;SDS011;11103;43.788;23.710;2022-11-15T04:49:23;77.80;;;37.17;;
21876;SDS011;11103;43.788;23.710;2022-11-15T04:51:48;76.43;;;36.37;;
21876;SDS011;11103;43.788;23.710;2022-11-15T04:54:14;87.13;;;38.90;;
21876;SDS011;11103;43.788;23.710;2022-11-15T04:56:39;77.13;;;35.30;;
21876;SDS011;11103;43.788;23.710;2022-11-15T04:59:05;81.97;;;35.63;;
21876;SDS011;11103;43.788;23.710;2022-11-15T05:01:30;80.13;;;35.73;;
21876;SDS011;11103;43.788;23.710;2022-11-15T05:03:56;76.43;;;35.60;;
21876;SDS011;11103;43.788;23.710;2022-11-15T05:06:40;75.70;;;36.20;;
21876;SDS011;11103;43.788;23.710;2022-11-15T05:09:05;79.33;;;35.83;;
21876;SDS011;11103;43.788;23.710;2022-11-15T05:11:31;70.23;;;34.43;;
21876;SDS011;11103;43.788;23.710;2022-11-15T05:13:56;70.77;;;34.30;;
21876;SDS011;11103;43.788;23.710;2022-11-15T05:16:22;76.60;;;35.27;;
21876;SDS011;11103;43.788;23.710;2022-11-15T05:18:50;77.67;;;36.33;;
21876;SDS011;11103;43.788;23.710;2022-11-15T05:21:16;96.37;;;35.37;;
21876;SDS011;11103;43.788;23.710;2022-11-15T05:23:41;71.73;;;34.87;;
21876;SDS011;11103;43.788;23.710;2022-11-15T05:26:10;80.07;;;34.73;;
21876;SDS011;11103;43.788;23.710;2022-11-15T05:28:36;79.10;;;35.17;;
21876;SDS011;11103;43.788;23.710;2022-11-15T05:31:02;94.90;;;43.20;;
21876;SDS011;11103;43.788;23.710;2022-11-15T05:33:30;73.27;;;35.60;;
21876;SDS011;11103;43.788;23.710;2022-11-15T05:36:00;75.40;;;35.07;;
21876;SDS011;11103;43.788;23.710;2022-11-15T05:38:34;82.00;;;38.13;;
21876;SDS011;11103;43.788;23.710;2022-11-15T05:41:00;74.00;;;36.30;;
21876;SDS011;11103;43.788;23.710;2022-11-15T05:43:27;88.27;;;39.90;;
21876;SDS011;11103;43.788;23.710;2022-11-15T05:45:57;123.10;;;52.17;;
21876;SDS011;11103;43.788;23.710;2022-11-15T05:48:24;85.43;;;38.70;;
21876;SDS011;11103;43.788;23.710;2022-11-15T05:50:50;69.90;;;34.93;;
21876;SDS011;11103;43.788;23.710;2022-11-15T05:53:17;71.83;;;34.10;;
21876;SDS011;11103;43.788;23.710;2022-11-15T05:55:46;75.57;;;36.97;;
21876;SDS011;11103;43.788;23.710;2022-11-15T05:58:12;67.00;;;34.60;;
21876;SDS011;11103;43.788;23.710;2022-11-15T06:00:38;64.77;;;32.43;;
21876;SDS011;11103;43.788;23.710;2022-11-15T06:03:03;58.00;;;29.00;;
21876;SDS011;11103;43.788;23.710;2022-11-15T06:05:29;60.73;;;27.77;;
21876;SDS011;11103;43.788;23.710;2022-11-15T06:07:57;74.57;;;31.80;;
21876;SDS011;11103;43.788;23.710;2022-11-15T06:10:23;83.97;;;34.13;;
21876;SDS011;11103;43.788;23.710;2022-11-15T06:12:56;106.90;;;40.10;;
21876;SDS011;11103;43.788;23.710;2022-11-15T06:15:22;61.43;;;29.13;;
21876;SDS011;11103;43.788;23.710;2022-11-15T06:17:48;73.13;;;34.83;;
21876;SDS011;11103;43.788;23.710;2022-11-15T06:20:13;130.70;;;69.37;;
21876;SDS011;11103;43.788;23.710;2022-11-15T06:22:39;197.13;;;97.63;;
21876;SDS011;11103;43.788;23.710;2022-11-15T06:25:04;114.37;;;53.83;;
21876;SDS011;11103;43.788;23.710;2022-11-15T06:27:30;98.83;;;47.20;;
21876;SDS011;11103;43.788;23.710;2022-11-15T06:29:55;160.87;;;62.93;;
21876;SDS011;11103;43.788;23.710;2022-11-15T06:32:20;190.83;;;67.33;;
21876;SDS011;11103;43.788;23.710;2022-11-15T06:34:46;126.10;;;66.07;;
21876;SDS011;11103;43.788;23.710;2022-11-15T06:37:11;109.93;;;46.27;;
21876;SDS011;11103;43.788;23.710;2022-11-15T06:39:37;102.60;;;40.43;;
21876;SDS011;11103;43.788;23.710;2022-11-15T06:42:02;76.03;;;34.00;;
21876;SDS011;11103;43.788;23.710;2022-11-15T06:44:27;62.20;;;30.20;;
21876;SDS011;11103;43.788;23.710;2022-11-15T06:46:53;168.20;;;60.87;;
21876;SDS011;11103;43.788;23.710;2022-11-15T06:49:18;118.13;;;46.73;;
21876;SDS011;11103;43.788;23.710;2022-11-15T06:51:44;78.80;;;33.23;;
21876;SDS011;11103;43.788;23.710;2022-11-15T06:54:11;73.40;;;32.30;;
21876;SDS011;11103;43.788;23.710;2022-11-15T06:56:36;68.47;;;31.57;;
21876;SDS011;11103;43.788;23.710;2022-11-15T06:59:02;118.47;;;43.53;;
21876;SDS011;11103;43.788;23.710;2022-11-15T07:01:27;204.47;;;63.53;;
21876;SDS011;11103;43.788;23.710;2022-11-15T07:03:53;147.17;;;51.67;;
21876;SDS011;11103;43.788;23.710;2022-11-15T07:06:18;74.40;;;33.10;;
21876;SDS011;11103;43.788;23.710;2022-11-15T07:08:43;65.07;;;30.03;;
21876;SDS011;11103;43.788;23.710;2022-11-15T07:11:09;49.07;;;24.90;;
21876;SDS011;11103;43.788;23.710;2022-11-15T07:13:35;46.27;;;23.73;;
21876;SDS011;11103;43.788;23.710;2022-11-15T07:16:05;47.93;;;23.27;;
21876;SDS011;11103;43.788;23.710;2022-11-15T07:18:33;45.93;;;23.07;;
21876;SDS011;11103;43.788;23.710;2022-11-15T07:21:00;44.93;;;23.50;;
21876;SDS011;11103;43.788;23.710;2022-11-15T07:23:30;53.77;;;24.43;;
21876;SDS011;11103;43.788;23.710;2022-11-15T07:25:56;50.57;;;23.33;;
21876;SDS011;11103;43.788;23.710;2022-11-15T07:28:23;40.37;;;20.43;;
21876;SDS011;11103;43.788;23.710;2022-11-15T07:30:48;44.33;;;22.20;;
21876;SDS011;11103;43.788;23.710;2022-11-15T07:33:14;46.40;;;22.80;;
21876;SDS011;11103;43.788;23.710;2022-11-15T07:35:39;46.17;;;22.17;;
21876;SDS011;11103;43.788;23.710;2022-11-15T07:38:05;49.50;;;22.07;;
21876;SDS011;11103;43.788;23.710;2022-11-15T07:40:30;56.00;;;21.83;;
21876;SDS011;11103;43.788;23.710;2022-11-15T07:43:03;49.43;;;23.73;;
21876;SDS011;11103;43.788;23.710;2022-11-15T07:45:30;50.73;;;22.77;;
21876;SDS011;11103;43.788;23.710;2022-11-15T07:47:58;49.67;;;22.57;;
21876;SDS011;11103;43.788;23.710;2022-11-15T07:50:24;49.03;;;23.80;;
21876;SDS011;11103;43.788;23.710;2022-11-15T07:52:53;43.03;;;22.17;;
21876;SDS011;11103;43.788;23.710;2022-11-15T07:55:22;52.93;;;23.57;;
21876;SDS011;11103;43.788;23.710;2022-11-15T07:57:49;49.77;;;23.53;;
21876;SDS011;11103;43.788;23.710;2022-11-15T08:00:15;45.10;;;22.13;;
21876;SDS011;11103;43.788;23.710;2022-11-15T08:02:41;49.10;;;23.37;;
21876;SDS011;11103;43.788;23.710;2022-11-15T08:05:07;51.23;;;23.23;;
21876;SDS011;11103;43.788;23.710;2022-11-15T08:07:33;46.00;;;22.27;;
21876;SDS011;11103;43.788;23.710;2022-11-15T08:09:58;46.37;;;22.43;;
21876;SDS011;11103;43.788;23.710;2022-11-15T08:12:26;43.23;;;22.27;;
21876;SDS011;11103;43.788;23.710;2022-11-15T08:14:52;52.00;;;24.17;;
21876;SDS011;11103;43.788;23.710;2022-11-15T08:17:17;45.10;;;22.13;;
21876;SDS011;11103;43.788;23.710;2022-11-15T08:19:43;43.20;;;21.63;;
21876;SDS011;11103;43.788;23.710;2022-11-15T08:22:08;48.80;;;23.57;;
21876;SDS011;11103;43.788;23.710;2022-11-15T08:24:33;50.13;;;23.17;;
21876;SDS011;11103;43.788;23.710;2022-11-15T08:26:59;47.90;;;22.27;;
21876;SDS011;11103;43.788;23.710;2022-11-15T08:29:25;46.30;;;22.10;;
21876;SDS011;11103;43.788;23.710;2022-11-15T08:31:51;45.30;;;22.90;;
21876;SDS011;11103;43.788;23.710;2022-11-15T08:34:16;48.07;;;23.43;;
21876;SDS011;11103;43.788;23.710;2022-11-15T08:36:42;49.27;;;21.07;;
21876;SDS011;11103;43.788;23.710;2022-11-15T08:39:09;46.23;;;22.60;;
21876;SDS011;11103;43.788;23.710;2022-11-15T08:41:36;41.93;;;22.27;;
21876;SDS011;11103;43.788;23.710;2022-11-15T08:44:02;44.50;;;22.33;;
21876;SDS011;11103;43.788;23.710;2022-11-15T08:46:28;47.13;;;23.73;;
21876;SDS011;11103;43.788;23.710;2022-11-15T08:48:53;47.20;;;23.23;;
21876;SDS011;11103;43.788;23.710;2022-11-15T08:51:18;45.77;;;22.03;;
21876;SDS011;11103;43.788;23.710;2022-11-15T08:53:44;48.87;;;23.03;;
21876;SDS011;11103;43.788;23.710;2022-11-15T08:56:10;46.77;;;22.17;;
21876;SDS011;11103;43.788;23.710;2022-11-15T08:58:37;48.50;;;23.20;;
21876;SDS011;11103;43.788;23.710;2022-11-15T09:01:03;48.30;;;24.77;;
21876;SDS011;11103;43.788;23.710;2022-11-15T09:03:29;45.10;;;23.17;;
21876;SDS011;11103;43.788;23.710;2022-11-15T09:05:55;50.57;;;25.47;;
21876;SDS011;11103;43.788;23.710;2022-11-15T09:08:25;49.37;;;24.30;;
21876;SDS011;11103;43.788;23.710;2022-11-15T09:10:54;49.30;;;23.97;;
21876;SDS011;11103;43.788;23.710;2022-11-15T09:13:20;47.33;;;22.87;;
21876;SDS011;11103;43.788;23.710;2022-11-15T09:15:46;50.70;;;23.77;;
21876;SDS011;11103;43.788;23.710;2022-11-15T09:18:11;47.40;;;23.83;;
21876;SDS011;11103;43.788;23.710;2022-11-15T09:20:37;44.97;;;22.80;;
21876;SDS011;11103;43.788;23.710;2022-11-15T09:23:03;40.97;;;22.00;;
21876;SDS011;11103;43.788;23.710;2022-11-15T09:25:29;40.10;;;21.70;;
21876;SDS011;11103;43.788;23.710;2022-11-15T09:27:55;45.63;;;22.43;;
21876;SDS011;11103;43.788;23.710;2022-11-15T09:30:21;44.40;;;22.10;;
21876;SDS011;11103;43.788;23.710;2022-11-15T09:32:47;42.27;;;21.40;;
21876;SDS011;11103;43.788;23.710;2022-11-15T09:35:12;44.60;;;22.43;;
21876;SDS011;11103;43.788;23.710;2022-11-15T09:37:39;41.13;;;21.90;;
21876;SDS011;11103;43.788;23.710;2022-11-15T09:40:04;45.20;;;23.57;;
21876;SDS011;11103;43.788;23.710;2022-11-15T09:50:48;40.37;;;20.57;;
21876;SDS011;11103;43.788;23.710;2022-11-15T09:56:14;39.93;;;20.70;;
21876;SDS011;11103;43.788;23.710;2022-11-15T09:58:55;40.10;;;21.70;;
21876;SDS011;11103;43.788;23.710;2022-11-15T10:04:22;41.13;;;22.60;;
21876;SDS011;11103;43.788;23.710;2022-11-15T10:12:34;40.77;;;21.40;;
21876;SDS011;11103;43.788;23.710;2022-11-15T10:15:04;41.43;;;21.57;;
21876;SDS011;11103;43.788;23.710;2022-11-15T10:20:23;42.57;;;18.73;;
21876;SDS011;11103;43.788;23.710;2022-11-15T10:22:58;40.77;;;20.53;;
21876;SDS011;11103;43.788;23.710;2022-11-15T10:25:26;37.57;;;19.37;;
21876;SDS011;11103;43.788;23.710;2022-11-15T10:27:59;43.77;;;20.10;;
21876;SDS011;11103;43.788;23.710;2022-11-15T10:30:39;39.80;;;19.27;;
21876;SDS011;11103;43.788;23.710;2022-11-15T10:33:11;39.03;;;19.70;;
21876;SDS011;11103;43.788;23.710;2022-11-15T10:38:51;37.83;;;19.37;;
21876;SDS011;11103;43.788;23.710;2022-11-15T10:49:20;39.33;;;19.77;;
21876;SDS011;11103;43.788;23.710;2022-11-15T10:51:57;35.67;;;19.90;;
21876;SDS011;11103;43.788;23.710;2022-11-15T10:57:22;40.87;;;18.97;;
21876;SDS011;11103;43.788;23.710;2022-11-15T10:59:55;41.83;;;19.07;;
21876;SDS011;11103;43.788;23.710;2022-11-15T11:02:27;33.93;;;18.37;;
21876;SDS011;11103;43.788;23.710;2022-11-15T11:04:55;33.43;;;17.77;;
21876;SDS011;11103;43.788;23.710;2022-11-15T11:07:27;35.67;;;18.80;;
21876;SDS011;11103;43.788;23.710;2022-11-15T11:09:58;36.77;;;18.13;;
21876;SDS011;11103;43.788;23.710;2022-11-15T11:12:27;36.87;;;17.63;;
21876;SDS011;11103;43.788;23.710;2022-11-15T11:14:55;35.67;;;17.87;;
21876;SDS011;11103;43.788;23.710;2022-11-15T11:22:28;35.17;;;17.33;;
21876;SDS011;11103;43.788;23.710;2022-11-15T11:33:54;38.10;;;18.77;;
21876;SDS011;11103;43.788;23.710;2022-11-15T11:36:42;31.70;;;16.33;;
21876;SDS011;11103;43.788;23.710;2022-11-15T11:42:21;38.80;;;18.37;;
21876;SDS011;11103;43.788;23.710;2022-11-15T11:47:40;31.67;;;17.90;;
21876;SDS011;11103;43.788;23.710;2022-11-15T11:50:19;31.30;;;16.63;;
21876;SDS011;11103;43.788;23.710;2022-11-15T11:55:56;32.10;;;16.80;;
21876;SDS011;11103;43.788;23.710;2022-11-15T11:58:29;30.17;;;16.83;;
21876;SDS011;11103;43.788;23.710;2022-11-15T12:04:01;32.50;;;16.50;;
21876;SDS011;11103;43.788;23.710;2022-11-15T12:09:44;32.47;;;16.33;;
21876;SDS011;11103;43.788;23.710;2022-11-15T12:15:22;32.07;;;16.97;;
21876;SDS011;11103;43.788;23.710;2022-11-15T12:17:48;30.07;;;16.63;;
21876;SDS011;11103;43.788;23.710;2022-11-15T12:22:43;28.00;;;15.77;;
21876;SDS011;11103;43.788;23.710;2022-11-15T12:27:57;34.47;;;17.10;;
21876;SDS011;11103;43.788;23.710;2022-11-15T12:30:23;33.87;;;17.83;;
21876;SDS011;11103;43.788;23.710;2022-11-15T12:32:57;29.80;;;16.80;;
21876;SDS011;11103;43.788;23.710;2022-11-15T12:35:26;31.73;;;17.10;;
21876;SDS011;11103;43.788;23.710;2022-11-15T12:38:12;27.93;;;16.20;;
21876;SDS011;11103;43.788;23.710;2022-11-15T12:41:16;32.10;;;16.20;;
21876;SDS011;11103;43.788;23.710;2022-11-15T12:43:43;27.47;;;15.33;;
21876;SDS011;11103;43.788;23.710;2022-11-15T12:46:21;34.73;;;16.67;;
21876;SDS011;11103;43.788;23.710;2022-11-15T12:48:49;81.80;;;31.37;;
21876;SDS011;11103;43.788;23.710;2022-11-15T12:51:19;37.40;;;19.60;;
21876;SDS011;11103;43.788;23.710;2022-11-15T12:53:47;29.67;;;16.67;;
21876;SDS011;11103;43.788;23.710;2022-11-15T12:58:43;46.70;;;24.00;;
21876;SDS011;11103;43.788;23.710;2022-11-15T13:06:45;34.37;;;17.03;;
21876;SDS011;11103;43.788;23.710;2022-11-15T13:11:57;33.70;;;16.23;;
21876;SDS011;11103;43.788;23.710;2022-11-15T13:14:49;32.83;;;16.93;;
21876;SDS011;11103;43.788;23.710;2022-11-15T13:17:21;32.43;;;17.27;;
21876;SDS011;11103;43.788;23.710;2022-11-15T13:19:48;26.43;;;14.97;;
21876;SDS011;11103;43.788;23.710;2022-11-15T13:22:39;35.37;;;17.37;;
21876;SDS011;11103;43.788;23.710;2022-11-15T13:33:20;32.40;;;17.73;;
21876;SDS011;11103;43.788;23.710;2022-11-15T13:35:55;36.90;;;20.93;;
21876;SDS011;11103;43.788;23.710;2022-11-15T13:38:30;34.60;;;18.57;;
21876;SDS011;11103;43.788;23.710;2022-11-15T13:40:57;43.30;;;21.23;;
21876;SDS011;11103;43.788;23.710;2022-11-15T13:43:28;43.13;;;20.97;;
21876;SDS011;11103;43.788;23.710;2022-11-15T13:48:34;35.57;;;17.97;;
21876;SDS011;11103;43.788;23.710;2022-11-15T13:51:08;32.13;;;17.87;;
21876;SDS011;11103;43.788;23.710;2022-11-15T13:53:35;33.87;;;18.40;;
21876;SDS011;11103;43.788;23.710;2022-11-15T13:56:05;36.90;;;19.63;;
21876;SDS011;11103;43.788;23.710;2022-11-15T13:58:31;39.43;;;19.23;;
21876;SDS011;11103;43.788;23.710;2022-11-15T14:01:01;37.37;;;18.70;;
21876;SDS011;11103;43.788;23.710;2022-11-15T14:03:38;32.70;;;17.93;;
21876;SDS011;11103;43.788;23.710;2022-11-15T14:06:13;39.67;;;19.53;;
21876;SDS011;11103;43.788;23.710;2022-11-15T14:11:27;45.70;;;22.83;;
21876;SDS011;11103;43.788;23.710;2022-11-15T14:16:34;108.23;;;49.27;;
21876;SDS011;11103;43.788;23.710;2022-11-15T14:19:05;54.30;;;27.33;;
21876;SDS011;11103;43.788;23.710;2022-11-15T14:21:34;36.80;;;18.60;;
21876;SDS011;11103;43.788;23.710;2022-11-15T14:24:16;30.37;;;17.57;;
21876;SDS011;11103;43.788;23.710;2022-11-15T14:26:43;33.70;;;17.43;;
21876;SDS011;11103;43.788;23.710;2022-11-15T14:29:22;33.80;;;17.20;;
21876;SDS011;11103;43.788;23.710;2022-11-15T14:31:47;40.87;;;19.97;;
21876;SDS011;11103;43.788;23.710;2022-11-15T14:34:12;38.97;;;19.80;;
21876;SDS011;11103;43.788;23.710;2022-11-15T14:36:38;39.80;;;22.57;;
21876;SDS011;11103;43.788;23.710;2022-11-15T14:39:03;46.67;;;20.50;;
21876;SDS011;11103;43.788;23.710;2022-11-15T14:41:33;51.57;;;25.70;;
21876;SDS011;11103;43.788;23.710;2022-11-15T14:44:02;39.70;;;18.57;;
21876;SDS011;11103;43.788;23.710;2022-11-15T14:46:29;40.80;;;20.17;;
21876;SDS011;11103;43.788;23.710;2022-11-15T14:48:55;34.83;;;18.87;;
21876;SDS011;11103;43.788;23.710;2022-11-15T14:51:20;42.63;;;20.90;;
21876;SDS011;11103;43.788;23.710;2022-11-15T14:53:46;31.93;;;18.27;;
21876;SDS011;11103;43.788;23.710;2022-11-15T14:56:12;34.53;;;18.47;;
21876;SDS011;11103;43.788;23.710;2022-11-15T14:58:39;70.10;;;28.33;;
21876;SDS011;11103;43.788;23.710;2022-11-15T15:01:12;49.13;;;22.43;;
21876;SDS011;11103;43.788;23.710;2022-11-15T15:03:41;36.13;;;18.13;;
21876;SDS011;11103;43.788;23.710;2022-11-15T15:06:06;43.90;;;23.70;;
21876;SDS011;11103;43.788;23.710;2022-11-15T15:08:34;44.77;;;21.07;;
21876;SDS011;11103;43.788;23.710;2022-11-15T15:10:59;43.77;;;22.17;;
21876;SDS011;11103;43.788;23.710;2022-11-15T15:13:24;43.37;;;20.93;;
21876;SDS011;11103;43.788;23.710;2022-11-15T15:15:50;39.77;;;20.07;;
21876;SDS011;11103;43.788;23.710;2022-11-15T15:18:16;46.03;;;22.47;;
21876;SDS011;11103;43.788;23.710;2022-11-15T15:20:43;38.13;;;20.63;;
21876;SDS011;11103;43.788;23.710;2022-11-15T15:23:17;38.87;;;21.83;;
21876;SDS011;11103;43.788;23.710;2022-11-15T15:25:45;37.23;;;19.10;;
21876;SDS011;11103;43.788;23.710;2022-11-15T15:28:12;38.33;;;19.30;;
21876;SDS011;11103;43.788;23.710;2022-11-15T15:30:38;37.07;;;20.73;;
21876;SDS011;11103;43.788;23.710;2022-11-15T15:33:03;41.83;;;21.13;;
21876;SDS011;11103;43.788;23.710;2022-11-15T15:35:30;44.20;;;22.13;;
21876;SDS011;11103;43.788;23.710;2022-11-15T15:37:58;40.07;;;21.03;;
21876;SDS011;11103;43.788;23.710;2022-11-15T15:40:24;50.77;;;26.33;;
21876;SDS011;11103;43.788;23.710;2022-11-15T15:42:50;47.80;;;22.40;;
21876;SDS011;11103;43.788;23.710;2022-11-15T15:45:16;46.33;;;22.03;;
21876;SDS011;11103;43.788;23.710;2022-11-15T15:47:43;44.07;;;21.30;;
21876;SDS011;11103;43.788;23.710;2022-11-15T15:52:56;42.70;;;19.90;;
21876;SDS011;11103;43.788;23.710;2022-11-15T15:55:23;34.60;;;18.30;;
21876;SDS011;11103;43.788;23.710;2022-11-15T15:57:49;31.03;;;16.90;;
21876;SDS011;11103;43.788;23.710;2022-11-15T16:00:16;40.97;;;21.53;;
21876;SDS011;11103;43.788;23.710;2022-11-15T16:02:43;54.43;;;27.53;;
21876;SDS011;11103;43.788;23.710;2022-11-15T16:05:09;47.30;;;23.20;;
21876;SDS011;11103;43.788;23.710;2022-11-15T16:07:35;45.20;;;22.37;;
21876;SDS011;11103;43.788;23.710;2022-11-15T16:10:01;44.27;;;21.70;;
21876;SDS011;11103;43.788;23.710;2022-11-15T16:12:38;40.00;;;20.33;;
21876;SDS011;11103;43.788;23.710;2022-11-15T16:15:03;44.73;;;22.17;;
21876;SDS011;11103;43.788;23.710;2022-11-15T16:17:32;52.70;;;26.17;;
21876;SDS011;11103;43.788;23.710;2022-11-15T16:20:02;51.37;;;28.67;;
21876;SDS011;11103;43.788;23.710;2022-11-15T16:22:29;61.03;;;29.37;;
21876;SDS011;11103;43.788;23.710;2022-11-15T16:24:55;48.83;;;24.40;;
21876;SDS011;11103;43.788;23.710;2022-11-15T16:27:21;49.60;;;26.43;;